createdAt,value
2023-05-04T00:01:33.224Z,17.23
2023-05-04T00:04:01.118Z,17.19
2023-05-04T00:06:28.709Z,17.16
2023-05-04T00:08:56.106Z,17.25
2023-05-04T00:11:23.755Z,17.26
2023-05-04T00:13:51.171Z,17.21
2023-05-04T00:16:18.939Z,17.18
2023-05-04T00:18:47.379Z,17.26
2023-05-04T00:21:14.807Z,17.29
2023-05-04T00:23:42.179Z,17.24
2023-05-04T00:26:09.908Z,17.18
2023-05-04T00:28:38.302Z,17.19
2023-05-04T00:31:05.852Z,17.14
2023-05-04T00:33:33.580Z,17.10
2023-05-04T00:36:03.377Z,17.21
2023-05-04T00:38:30.738Z,17.25
2023-05-04T00:40:59.090Z,17.37
2023-05-04T00:43:26.765Z,17.38
2023-05-04T00:45:54.229Z,17.36
2023-05-04T00:48:21.924Z,17.36
2023-05-04T00:50:49.310Z,17.35
2023-05-04T00:53:16.738Z,17.30
2023-05-04T00:55:44.955Z,17.33
2023-05-04T00:58:12.416Z,17.11
2023-05-04T01:00:39.864Z,17.04
2023-05-04T01:03:09.881Z,17.05
2023-05-04T01:05:43.521Z,17.10
2023-05-04T01:08:15.368Z,17.12
2023-05-04T01:10:47.456Z,17.19
2023-05-04T01:13:16.559Z,17.19
2023-05-04T01:15:44.718Z,17.22
2023-05-04T01:18:12.233Z,17.17
2023-05-04T01:20:39.986Z,17.16
2023-05-04T01:23:07.474Z,17.22
2023-05-04T01:25:46.347Z,17.18
2023-05-04T01:28:27.912Z,17.13
2023-05-04T01:30:58.688Z,17.26
2023-05-04T01:33:27.617Z,17.25
2023-05-04T01:35:55.093Z,17.18
2023-05-04T01:38:22.490Z,17.10
2023-05-04T01:40:50.172Z,17.11
2023-05-04T01:43:17.613Z,17.17
2023-05-04T01:45:45.053Z,17.13
2023-05-04T01:48:13.189Z,17.10
2023-05-04T01:50:41.089Z,17.18
2023-05-04T01:53:09.092Z,17.11
2023-05-04T01:55:36.748Z,16.95
2023-05-04T01:58:04.241Z,17.07
2023-05-04T02:00:31.635Z,17.06
2023-05-04T02:03:00.655Z,17.03
2023-05-04T02:05:28.179Z,17.01
2023-05-04T02:07:55.692Z,17.02
2023-05-04T02:10:23.385Z,16.91
2023-05-04T02:12:50.785Z,16.87
2023-05-04T02:15:18.282Z,16.97
2023-05-04T02:17:46.939Z,16.97
2023-05-04T02:20:15.187Z,16.92
2023-05-04T02:22:43.420Z,16.80
2023-05-04T02:25:11.131Z,16.74
2023-05-04T02:27:38.604Z,16.83
2023-05-04T02:30:06.837Z,16.80
2023-05-04T02:32:34.779Z,16.74
2023-05-04T02:35:02.590Z,16.63
2023-05-04T02:37:30.418Z,16.65
2023-05-04T02:39:57.858Z,16.64
2023-05-04T02:42:25.944Z,16.52
2023-05-04T02:44:53.663Z,16.43
2023-05-04T02:47:21.125Z,16.45
2023-05-04T02:49:48.615Z,16.46
2023-05-04T02:52:17.997Z,16.43
2023-05-04T02:54:46.112Z,16.31
2023-05-04T02:57:13.520Z,16.27
2023-05-04T02:59:41.366Z,16.25
2023-05-04T03:02:08.752Z,16.20
2023-05-04T03:04:36.318Z,16.29
2023-05-04T03:07:04.022Z,16.25
2023-05-04T03:09:31.477Z,16.24
2023-05-04T03:11:59.256Z,16.26
2023-05-04T03:14:27.114Z,16.28
2023-05-04T03:16:54.718Z,16.22
2023-05-04T03:19:22.258Z,16.27
2023-05-04T03:21:50.426Z,16.12
2023-05-04T03:24:19.293Z,16.16
2023-05-04T03:26:47.819Z,16.17
2023-05-04T03:29:15.875Z,16.17
2023-05-04T03:31:43.441Z,16.13
2023-05-04T03:34:14.684Z,16.13
2023-05-04T03:36:42.381Z,16.12
2023-05-04T03:39:09.816Z,16.20
2023-05-04T03:41:37.388Z,16.07
2023-05-04T03:44:05.091Z,16.13
2023-05-04T03:46:32.629Z,16.16
2023-05-04T03:49:00.523Z,16.19
2023-05-04T03:51:28.638Z,16.18
2023-05-04T03:53:56.093Z,16.21
2023-05-04T03:56:23.530Z,16.25
2023-05-04T03:58:51.195Z,16.28
2023-05-04T04:01:19.531Z,16.30
2023-05-04T04:03:47.368Z,16.34
2023-05-04T04:06:15.895Z,16.24
2023-05-04T04:08:43.322Z,16.25
2023-05-04T04:11:10.966Z,16.39
2023-05-04T04:13:38.335Z,16.41
2023-05-04T04:16:06.689Z,16.45
2023-05-04T04:18:34.828Z,16.50
2023-05-04T04:21:02.220Z,16.44
2023-05-04T04:23:29.630Z,16.56
2023-05-04T04:25:57.688Z,16.46
2023-05-04T04:28:25.056Z,16.61
2023-05-04T04:30:53.022Z,16.61
2023-05-04T04:33:21.328Z,16.61
2023-05-04T04:35:48.807Z,16.79
2023-05-04T04:38:16.255Z,16.88
2023-05-04T04:40:43.962Z,16.96
2023-05-04T04:43:11.629Z,16.95
2023-05-04T04:45:41.125Z,16.92
2023-05-04T04:48:08.878Z,17.02
2023-05-04T04:50:39.136Z,17.11
2023-05-04T04:53:06.568Z,17.13
2023-05-04T04:55:34.824Z,17.22
2023-05-04T04:58:02.216Z,17.30
2023-05-04T05:00:30.002Z,17.37
2023-05-04T05:02:57.824Z,17.20
2023-05-04T05:05:25.364Z,17.42
2023-05-04T05:07:53.119Z,17.54
2023-05-04T05:10:24.038Z,17.63
2023-05-04T05:12:51.497Z,17.58
2023-05-04T05:15:19.014Z,17.71
2023-05-04T05:17:46.775Z,17.78
2023-05-04T05:20:15.201Z,17.79
2023-05-04T05:22:43.098Z,17.88
2023-05-04T05:25:11.060Z,17.87
2023-05-04T05:27:38.432Z,17.95
2023-05-04T05:30:06.603Z,18.01
2023-05-04T05:32:34.630Z,18.20
2023-05-04T05:35:02.226Z,18.38
2023-05-04T05:37:29.664Z,18.52
2023-05-04T05:39:57.367Z,18.25
2023-05-04T05:42:24.769Z,18.36
2023-05-04T05:44:52.197Z,18.42
2023-05-04T05:47:19.885Z,18.43
2023-05-04T05:49:47.298Z,18.49
2023-05-04T05:52:14.791Z,18.61
2023-05-04T05:54:42.725Z,18.67
2023-05-04T05:57:10.163Z,18.82
2023-05-04T05:59:37.578Z,18.94
2023-05-04T06:02:05.938Z,19.02
2023-05-04T06:04:33.647Z,18.94
2023-05-04T06:07:01.229Z,19.12
2023-05-04T06:09:28.596Z,19.11
2023-05-04T06:11:56.249Z,19.19
2023-05-04T06:14:23.619Z,19.20
2023-05-04T06:16:51.165Z,19.29
2023-05-04T06:19:18.925Z,19.15
2023-05-04T06:21:48.924Z,19.17
2023-05-04T06:24:16.593Z,19.25
2023-05-04T06:26:44.254Z,19.57
2023-05-04T06:29:11.889Z,19.82
2023-05-04T06:31:39.346Z,19.57
2023-05-04T06:34:07.044Z,19.84
2023-05-04T06:36:34.516Z,19.83
2023-05-04T06:39:01.934Z,20.00
2023-05-04T06:41:29.747Z,20.09
2023-05-04T06:43:58.862Z,20.23
2023-05-04T06:46:27.205Z,20.33
2023-05-04T06:48:54.973Z,20.35
2023-05-04T06:51:22.389Z,20.30
2023-05-04T06:53:49.757Z,20.15
2023-05-04T06:56:17.462Z,20.19
2023-05-04T06:58:44.850Z,20.20
2023-05-04T07:01:12.337Z,20.38
2023-05-04T07:03:40.151Z,20.61
2023-05-04T07:06:07.727Z,20.64
2023-05-04T07:08:35.181Z,20.88
2023-05-04T07:11:02.872Z,21.12
2023-05-04T07:13:30.320Z,20.96
2023-05-04T07:15:57.746Z,21.05
2023-05-04T07:18:25.491Z,21.22
2023-05-04T07:20:54.225Z,21.41
2023-05-04T07:23:23.534Z,21.51
2023-05-04T07:25:53.538Z,21.83
2023-05-04T07:28:21.117Z,21.84
2023-05-04T07:30:48.513Z,22.00
2023-05-04T07:33:16.229Z,21.87
2023-05-04T07:35:43.704Z,21.81
2023-05-04T07:38:11.173Z,22.13
2023-05-04T07:40:39.085Z,22.53
2023-05-04T07:43:06.494Z,22.71
2023-05-04T07:45:33.902Z,22.82
2023-05-04T07:48:01.821Z,22.80
2023-05-04T07:50:29.480Z,22.87
2023-05-04T07:52:57.089Z,22.72
2023-05-04T07:55:26.119Z,22.71
2023-05-04T07:57:53.555Z,22.76
2023-05-04T08:00:21.499Z,22.67
2023-05-04T08:02:49.720Z,22.79
2023-05-04T08:05:17.342Z,22.61
2023-05-04T08:07:44.761Z,22.74
2023-05-04T08:10:12.574Z,23.00
2023-05-04T08:12:41.119Z,22.76
2023-05-04T08:15:09.001Z,22.95
2023-05-04T08:17:39.334Z,23.07
2023-05-04T08:20:08.320Z,23.14
2023-05-04T08:22:36.204Z,23.27
2023-05-04T08:25:04.640Z,23.51
2023-05-04T08:27:33.053Z,23.68
2023-05-04T08:30:00.544Z,23.91
2023-05-04T08:32:30.008Z,23.81
2023-05-04T08:34:59.198Z,24.06
2023-05-04T08:37:26.855Z,24.28
2023-05-04T08:39:54.687Z,24.33
2023-05-04T08:42:32.637Z,24.40
2023-05-04T08:45:00.836Z,24.73
2023-05-04T08:47:31.610Z,24.56
2023-05-04T08:49:59.083Z,24.63
2023-05-04T08:52:27.586Z,24.49
2023-05-04T08:54:57.058Z,24.56
2023-05-04T08:57:25.515Z,24.34
2023-05-04T08:59:54.707Z,24.15
2023-05-04T09:02:24.027Z,23.84
2023-05-04T09:04:52.699Z,23.72
2023-05-04T09:07:21.667Z,24.10
2023-05-04T09:09:50.963Z,24.25
2023-05-04T09:12:19.253Z,24.36
2023-05-04T09:14:47.394Z,24.38
2023-05-04T09:17:25.700Z,24.17
2023-05-04T09:20:01.664Z,24.17
2023-05-04T09:22:29.892Z,24.01
2023-05-04T09:25:11.490Z,23.92
2023-05-04T09:27:41.441Z,23.81
2023-05-04T09:30:09.596Z,23.65
2023-05-04T09:32:46.375Z,23.64
2023-05-04T09:35:29.333Z,23.52
2023-05-04T09:37:59.749Z,23.45
2023-05-04T09:40:41.325Z,23.28
2023-05-04T09:43:09.386Z,23.14
2023-05-04T09:45:41.647Z,23.11
2023-05-04T09:48:17.543Z,23.27
2023-05-04T09:50:55.326Z,23.59
2023-05-04T09:53:30.366Z,23.45
2023-05-04T09:56:04.456Z,23.48
2023-05-04T09:58:33.628Z,23.44
2023-05-04T10:01:01.834Z,23.62
2023-05-04T10:03:29.990Z,23.55
2023-05-04T10:05:59.442Z,23.39
2023-05-04T10:08:32.044Z,23.38
2023-05-04T10:10:59.902Z,23.33
2023-05-04T10:13:28.076Z,23.41
2023-05-04T10:16:05.959Z,23.40
2023-05-04T10:18:50.129Z,23.42
2023-05-04T10:21:26.315Z,23.44
2023-05-04T10:24:12.878Z,23.29
2023-05-04T10:27:00.992Z,23.29
2023-05-04T10:29:30.312Z,23.42
2023-05-04T10:31:58.726Z,23.48
2023-05-04T10:34:30.745Z,23.43
2023-05-04T10:37:00.115Z,23.54
2023-05-04T10:39:30.236Z,23.60
2023-05-04T10:42:02.901Z,23.64
2023-05-04T10:44:49.751Z,24.00
2023-05-04T10:47:33.263Z,24.13
2023-05-04T10:50:08.093Z,24.19
2023-05-04T10:52:48.703Z,24.38
2023-05-04T10:55:16.985Z,24.50
2023-05-04T10:57:51.864Z,24.72
2023-05-04T11:00:19.929Z,24.86
2023-05-04T11:02:50.717Z,25.14
2023-05-04T11:05:20.206Z,25.26
2023-05-04T11:07:53.000Z,25.26
2023-05-04T11:10:25.847Z,25.22
2023-05-04T11:12:55.649Z,25.34
2023-05-04T11:15:23.246Z,25.30
2023-05-04T11:17:52.471Z,25.21
2023-05-04T11:20:27.132Z,25.16
2023-05-04T11:22:54.916Z,24.99
2023-05-04T11:25:30.366Z,24.84
2023-05-04T11:28:01.495Z,24.79
2023-05-04T11:30:35.863Z,24.72
2023-05-04T11:33:05.235Z,24.51
2023-05-04T11:35:33.172Z,24.20
2023-05-04T11:38:00.956Z,24.20
2023-05-04T11:40:28.400Z,24.18
2023-05-04T11:42:57.665Z,24.09
2023-05-04T11:45:28.586Z,23.86
2023-05-04T11:47:57.555Z,23.81
2023-05-04T11:50:26.863Z,23.80
2023-05-04T11:53:06.264Z,23.76
2023-05-04T11:55:34.830Z,23.56
2023-05-04T11:58:04.012Z,23.51
2023-05-04T12:00:41.735Z,23.44
2023-05-04T12:03:14.672Z,23.49
2023-05-04T12:05:51.047Z,23.54
2023-05-04T12:08:42.374Z,23.14
2023-05-04T12:11:20.442Z,23.28
2023-05-04T12:13:49.353Z,23.22
2023-05-04T12:16:19.126Z,23.32
2023-05-04T12:18:47.746Z,23.30
2023-05-04T12:21:19.173Z,23.42
2023-05-04T12:23:47.416Z,23.43
2023-05-04T12:26:17.409Z,23.49
2023-05-04T12:28:47.187Z,23.68
2023-05-04T12:31:15.056Z,23.93
2023-05-04T12:33:42.491Z,24.15
2023-05-04T12:36:10.332Z,24.27
2023-05-04T12:38:39.325Z,24.43
2023-05-04T12:41:10.726Z,24.46
2023-05-04T12:43:38.638Z,24.37
2023-05-04T12:46:06.197Z,24.61
2023-05-04T12:48:34.249Z,24.41
2023-05-04T12:51:04.106Z,24.61
2023-05-04T12:53:32.373Z,24.74
2023-05-04T12:56:00.732Z,24.63
2023-05-04T12:58:28.488Z,24.62
2023-05-04T13:00:57.777Z,24.69
2023-05-04T13:03:25.429Z,24.72
2023-05-04T13:05:53.485Z,24.98
2023-05-04T13:08:20.965Z,25.08
2023-05-04T13:10:48.420Z,25.06
2023-05-04T13:13:17.850Z,24.95
2023-05-04T13:15:46.036Z,24.87
2023-05-04T13:18:13.610Z,24.72
2023-05-04T13:20:41.255Z,24.76
2023-05-04T13:23:08.687Z,24.82
2023-05-04T13:25:36.336Z,24.66
2023-05-04T13:28:04.062Z,24.57
2023-05-04T13:30:31.428Z,24.53
2023-05-04T13:32:58.909Z,24.40
2023-05-04T13:35:26.753Z,23.95
2023-05-04T13:37:54.297Z,23.97
2023-05-04T13:40:21.720Z,24.00
2023-05-04T13:42:49.502Z,23.87
2023-05-04T13:45:17.514Z,23.91
2023-05-04T13:47:45.268Z,23.71
2023-05-04T13:50:13.686Z,23.75
2023-05-04T13:52:41.069Z,23.43
2023-05-04T13:55:09.349Z,23.45
2023-05-04T13:57:37.072Z,23.41
2023-05-04T14:00:08.419Z,23.45
2023-05-04T14:02:38.119Z,23.51
2023-05-04T14:05:07.544Z,23.64
2023-05-04T14:07:35.374Z,23.47
2023-05-04T14:10:03.136Z,23.61
2023-05-04T14:12:31.859Z,23.52
2023-05-04T14:14:59.613Z,23.50
2023-05-04T14:17:27.129Z,23.48
2023-05-04T14:19:54.791Z,23.16
2023-05-04T14:22:22.142Z,23.35
2023-05-04T14:24:50.122Z,23.09
2023-05-04T14:27:17.826Z,23.27
2023-05-04T14:29:47.185Z,23.33
2023-05-04T14:32:15.527Z,23.34
2023-05-04T14:34:43.248Z,23.27
2023-05-04T14:37:10.775Z,23.44
2023-05-04T14:39:39.454Z,23.35
2023-05-04T14:42:07.124Z,23.48
2023-05-04T14:44:34.675Z,23.28
2023-05-04T14:47:04.869Z,23.31
2023-05-04T14:49:37.362Z,23.26
2023-05-04T14:52:05.562Z,23.27
2023-05-04T14:54:32.989Z,23.29
2023-05-04T14:57:00.637Z,23.23
2023-05-04T14:59:28.292Z,23.26
2023-05-04T15:01:57.528Z,23.11
2023-05-04T15:04:25.385Z,23.09
2023-05-04T15:06:52.850Z,23.08
2023-05-04T15:09:20.598Z,23.20
2023-05-04T15:11:48.643Z,23.30
2023-05-04T15:14:16.355Z,23.30
2023-05-04T15:16:43.894Z,23.25
2023-05-04T15:19:11.780Z,23.19
2023-05-04T15:21:39.166Z,23.22
2023-05-04T15:24:07.325Z,23.17
2023-05-04T15:26:35.820Z,23.40
2023-05-04T15:29:04.008Z,23.28
2023-05-04T15:31:31.665Z,23.05
2023-05-04T15:34:00.708Z,23.17
2023-05-04T15:36:28.112Z,23.22
2023-05-04T15:38:55.539Z,23.23
2023-05-04T15:41:23.654Z,23.11
2023-05-04T15:43:51.108Z,23.12
2023-05-04T15:46:18.562Z,23.10
2023-05-04T15:48:46.306Z,23.13
2023-05-04T15:51:13.864Z,23.09
2023-05-04T15:53:41.272Z,22.97
2023-05-04T15:56:09.121Z,22.76
2023-05-04T15:58:36.532Z,22.62
2023-05-04T16:01:04.318Z,22.81
2023-05-04T16:03:33.268Z,22.78
2023-05-04T16:06:01.614Z,22.80
2023-05-04T16:08:29.168Z,22.67
2023-05-04T16:10:57.982Z,22.63
2023-05-04T16:13:25.420Z,22.68
2023-05-04T16:15:53.425Z,22.61
2023-05-04T16:18:21.141Z,22.63
2023-05-04T16:20:48.546Z,22.62
2023-05-04T16:23:17.336Z,22.57
2023-05-04T16:25:45.101Z,22.59
2023-05-04T16:28:12.619Z,22.49
2023-05-04T16:30:42.473Z,22.47
2023-05-04T16:33:10.230Z,22.38
2023-05-04T16:35:37.820Z,22.44
2023-05-04T16:38:05.209Z,22.38
2023-05-04T16:40:32.960Z,22.33
2023-05-04T16:43:00.641Z,22.29
2023-05-04T16:45:31.704Z,22.41
2023-05-04T16:47:59.605Z,22.27
2023-05-04T16:50:27.017Z,22.25
2023-05-04T16:52:54.442Z,22.23
2023-05-04T16:55:22.156Z,22.19
2023-05-04T16:57:50.083Z,22.23
2023-05-04T17:00:18.410Z,22.10
2023-05-04T17:02:46.118Z,22.00
2023-05-04T17:05:13.672Z,21.99
2023-05-04T17:07:43.248Z,21.92
2023-05-04T17:10:11.387Z,21.87
2023-05-04T17:12:39.103Z,21.96
2023-05-04T17:15:07.352Z,21.89
2023-05-04T17:17:35.320Z,21.94
2023-05-04T17:20:03.739Z,21.73
2023-05-04T17:22:31.465Z,21.72
2023-05-04T17:24:59.199Z,21.74
2023-05-04T17:27:26.611Z,21.77
2023-05-04T17:29:54.223Z,21.65
2023-05-04T17:32:22.000Z,21.63
2023-05-04T17:34:49.440Z,21.73
2023-05-04T17:37:16.824Z,21.65
2023-05-04T17:39:46.788Z,21.52
2023-05-04T17:42:15.833Z,21.57
2023-05-04T17:44:43.289Z,21.52
2023-05-04T17:47:11.014Z,21.36
2023-05-04T17:49:38.611Z,21.33
2023-05-04T17:52:06.088Z,21.23
2023-05-04T17:54:33.779Z,21.10
2023-05-04T17:57:01.212Z,20.96
2023-05-04T17:59:28.902Z,20.93
2023-05-04T18:01:56.687Z,20.84
2023-05-04T18:04:24.443Z,20.78
2023-05-04T18:06:51.837Z,20.70
2023-05-04T18:09:19.803Z,20.49
2023-05-04T18:11:47.495Z,20.47
2023-05-04T18:14:14.944Z,20.44
2023-05-04T18:16:42.561Z,20.52
2023-05-04T18:19:10.346Z,20.49
2023-05-04T18:21:38.057Z,20.43
2023-05-04T18:24:05.778Z,20.44
2023-05-04T18:26:33.437Z,20.31
2023-05-04T18:29:11.137Z,20.23
2023-05-04T18:31:45.875Z,20.22
2023-05-04T18:34:13.433Z,20.10
2023-05-04T18:36:40.898Z,19.97
2023-05-04T18:39:08.758Z,19.98
2023-05-04T18:41:36.239Z,20.06
2023-05-04T18:44:15.370Z,19.86
2023-05-04T18:46:42.836Z,19.93
2023-05-04T18:49:10.498Z,19.88
2023-05-04T18:51:41.541Z,19.85
2023-05-04T18:54:09.200Z,19.84
2023-05-04T18:56:36.770Z,19.77
2023-05-04T18:59:06.085Z,19.75
2023-05-04T19:01:33.665Z,19.68
2023-05-04T19:04:01.536Z,19.66
2023-05-04T19:06:29.099Z,19.60
2023-05-04T19:08:56.498Z,19.64
2023-05-04T19:11:24.246Z,19.57
2023-05-04T19:13:51.841Z,19.38
2023-05-04T19:16:19.431Z,19.32
2023-05-04T19:18:47.159Z,19.24
2023-05-04T19:21:14.584Z,19.23
2023-05-04T19:23:42.074Z,19.24
2023-05-04T19:26:09.802Z,19.16
2023-05-04T19:28:37.372Z,19.14
2023-05-04T19:31:04.813Z,19.12
2023-05-04T19:33:44.614Z,18.97
2023-05-04T19:36:17.184Z,18.93
2023-05-04T19:38:45.105Z,18.85
2023-05-04T19:41:13.883Z,18.85
2023-05-04T19:43:42.555Z,18.77
2023-05-04T19:46:10.425Z,18.79
2023-05-04T19:48:38.858Z,18.86
2023-05-04T19:51:06.483Z,18.84
2023-05-04T19:53:34.263Z,18.70
2023-05-04T19:56:01.680Z,18.61
2023-05-04T19:58:30.787Z,18.74
2023-05-04T20:00:58.567Z,18.63
2023-05-04T20:03:26.425Z,18.54
2023-05-04T20:05:54.188Z,18.43
2023-05-04T20:08:21.713Z,18.38
2023-05-04T20:10:49.608Z,18.24
2023-05-04T20:13:17.091Z,18.15
2023-05-04T20:15:45.146Z,18.14
2023-05-04T20:18:13.105Z,18.09
2023-05-04T20:20:40.936Z,18.15
2023-05-04T20:23:08.599Z,18.23
2023-05-04T20:25:36.584Z,18.13
2023-05-04T20:28:04.126Z,18.03
2023-05-04T20:30:31.526Z,17.96
2023-05-04T20:32:59.253Z,17.93
2023-05-04T20:35:26.776Z,17.82
2023-05-04T20:37:54.370Z,17.92
2023-05-04T20:40:22.423Z,17.94
2023-05-04T20:42:49.818Z,17.80
2023-05-04T20:45:17.250Z,17.73
2023-05-04T20:47:45.044Z,17.64
2023-05-04T20:50:12.627Z,17.58
2023-05-04T20:52:40.184Z,17.51
2023-05-04T20:55:08.303Z,17.53
2023-05-04T20:57:35.981Z,17.49
2023-05-04T21:00:03.708Z,17.56
2023-05-04T21:02:33.114Z,17.53
2023-05-04T21:05:00.927Z,17.53
2023-05-04T21:07:28.393Z,17.44
2023-05-04T21:09:58.948Z,17.46
2023-05-04T21:12:26.507Z,17.53
2023-05-04T21:14:53.933Z,17.52
2023-05-04T21:17:21.650Z,17.35
2023-05-04T21:19:49.006Z,17.51
2023-05-04T21:22:17.618Z,17.46
2023-05-04T21:24:46.597Z,17.38
2023-05-04T21:27:14.091Z,17.31
2023-05-04T21:29:41.558Z,17.36
2023-05-04T21:32:09.281Z,17.33
2023-05-04T21:34:36.690Z,17.44
2023-05-04T21:37:04.269Z,17.36
2023-05-04T21:39:31.978Z,17.40
2023-05-04T21:41:59.481Z,17.42
2023-05-04T21:44:27.163Z,17.48
2023-05-04T21:46:55.831Z,17.42
2023-05-04T21:49:23.269Z,17.53
2023-05-04T21:51:50.626Z,17.60
2023-05-04T21:54:18.273Z,17.59
2023-05-04T21:56:45.727Z,17.57
2023-05-04T21:59:13.166Z,17.58
2023-05-04T22:01:42.353Z,17.62
2023-05-04T22:04:10.368Z,17.63
2023-05-04T22:06:38.096Z,17.56
2023-05-04T22:09:05.455Z,17.54
2023-05-04T22:11:33.179Z,17.60
2023-05-04T22:14:00.689Z,17.65
2023-05-04T22:16:28.125Z,17.60
2023-05-04T22:18:55.833Z,17.59
2023-05-04T22:21:23.231Z,17.62
2023-05-04T22:23:51.091Z,17.60
2023-05-04T22:26:18.960Z,17.63
2023-05-04T22:28:46.354Z,17.58
2023-05-04T22:31:13.861Z,17.58
2023-05-04T22:33:41.711Z,17.55
2023-05-04T22:36:09.263Z,17.59
2023-05-04T22:38:36.629Z,17.46
2023-05-04T22:41:04.463Z,17.34
2023-05-04T22:43:31.876Z,17.28
2023-05-04T22:45:59.296Z,17.32
2023-05-04T22:48:26.967Z,17.39
2023-05-04T22:50:55.006Z,17.46
2023-05-04T22:53:22.627Z,17.50
2023-05-04T22:55:50.330Z,17.54
2023-05-04T22:58:17.819Z,17.61
2023-05-04T23:00:47.892Z,17.69
2023-05-04T23:03:15.666Z,17.71
2023-05-04T23:05:43.163Z,17.69
2023-05-04T23:08:10.778Z,17.61
2023-05-04T23:10:38.434Z,17.63
2023-05-04T23:13:05.907Z,17.75
2023-05-04T23:15:33.396Z,17.68
2023-05-04T23:18:01.065Z,17.66
2023-05-04T23:20:28.531Z,17.77
2023-05-04T23:22:55.876Z,17.83
2023-05-04T23:25:23.566Z,17.79
2023-05-04T23:27:50.975Z,17.73
2023-05-04T23:30:18.679Z,17.58
2023-05-04T23:32:46.418Z,17.52
2023-05-04T23:35:13.840Z,17.47
2023-05-04T23:37:41.235Z,17.36
2023-05-04T23:40:09.576Z,17.46
2023-05-04T23:42:37.556Z,17.42
2023-05-04T23:45:05.508Z,17.19
2023-05-04T23:47:33.175Z,17.33
2023-05-04T23:50:01.159Z,17.24
2023-05-04T23:52:28.544Z,17.15
2023-05-04T23:54:56.230Z,17.06
2023-05-04T23:57:23.665Z,17.04
2023-05-04T23:59:52.378Z,17.15
